Tiempo atmosférico en la estación meteorológica de Bera, Navarra (78 m.)



Fecha
DESCASC
Temp. máxima en grados centígrados (hora)
DESCASC
Temp. mínima en grados centígrados (hora)
DESCASC
Temp. media en grados centígrados
DESCASC
Racha de viento máxima en m/sg (hora)
DESCASC
Velocidad máxima media en intervalos de 10 minutos(hora)
DESCASC
Precipitaciones diarias en mm
DESCASC
Precipitaciones de 00:00 a 06:00 en mm
DESCASC
Precipitaciones de 06:00 a 12:00 en mm
DESCASC
Precipitaciones de 12:00 a 18:00 en mm
DESCASC
Precipitaciones de 18:00 a 24:00 en mm
DESCASC
18-10-2018 19.7 (15:30) 12.3 (00:00) 16 4.17 (15:30) 2.22 (16:30) 0 0 0 0 0
17-10-2018 21.7 (15:00) 12.1 (22:50) 16.9 4.72 (15:40) 2.78 (16:00) 0 0 0 0 0
16-10-2018 -- (--) -- (--) -- -- (--) -- (--) -- 0 -- -- 0
15-10-2018 20.8 (15:50) 11.3 (23:59) 16 5.56 (16:20) 2.5 (16:20) 0.2 0.2 0 0 0
14-10-2018 25 (11:20) 13 (00:00) 19 9.72 (01:30) 4.44 (06:50) 33.6 0 0 33.2 0.4
13-10-2018 29.1 (15:50) 14.7 (00:00) 21.9 10.56 (13:30) 4.17 (16:10) 0 0 0 0 0
12-10-2018 27.6 (15:40) 14.1 (00:00) 20.9 9.44 (14:10) 3.61 (13:40) 0 0 0 0 0
11-10-2018 26.5 (16:10) 15.5 (23:50) 21 10.28 (14:30) 3.89 (07:10) 0.4 0 0 0.4 0
10-10-2018 23.1 (16:50) 11.7 (00:00) 17.4 10.83 (13:40) 3.89 (12:50) 0.6 0.6 0 0 0
09-10-2018 23.4 (16:50) 10.4 (04:30) 16.9 8.33 (19:50) 3.89 (20:00) 0 0 0 0 0
08-10-2018 17.3 (14:50) 11 (08:00) 14.1 5 (03:30) 2.22 (15:30) 3.8 3.8 0 0 0
07-10-2018 15.5 (11:20) 10.3 (08:30) 12.9 9.44 (11:40) 3.89 (19:30) 58.4 4.2 0.8 30.6 22.8
06-10-2018 21.5 (13:20) 9 (07:30) 15.3 10.56 (22:40) 4.17 (23:10) 4.2 0 0 0.8 3.4
05-10-2018 29.6 (17:00) 10 (04:40) 19.8 8.89 (12:50) 3.89 (13:20) 0 0 0 0 0
04-10-2018 24.1 (15:20) 9.2 (00:00) 16.7 6.39 (15:30) 3.33 (16:40) 0 0 0 0 0
03-10-2018 22.3 (15:20) 5.4 (00:00) 13.8 6.39 (18:00) 3.33 (16:50) 0 0 0 0 0
02-10-2018 18.6 (14:20) 5.2 (00:00) 11.9 6.67 (14:00) 3.33 (14:10) 0 0 0 0 0
01-10-2018 17.7 (13:20) 10.7 (00:00) 14.2 5.83 (17:00) 2.78 (17:00) 0 0 0 0 0
30-09-2018 23.1 (16:30) 11.7 (00:00) 17.4 6.39 (16:40) 2.5 (16:00) 0 0 0 0 0
29-09-2018 23.3 (14:00) 11.6 (00:00) 17.4 6.11 (18:20) 3.06 (18:00) 0 0 0 0 0
28-09-2018 24.9 (16:20) 13.7 (00:00) 19.3 6.94 (17:00) 3.61 (16:50) 0 0 0 0 0
27-09-2018 32.1 (16:20) 15.6 (00:00) 23.8 9.17 (01:10) 3.33 (17:10) 0 0 0 0 0
26-09-2018 29.1 (16:20) 8.7 (00:00) 18.9 8.89 (15:10) 3.61 (15:20) 0 0 0 0 0
25-09-2018 18.9 (14:30) 8.7 (00:00) 13.8 5.83 (14:30) 2.5 (15:40) 0 0 0 0 0
24-09-2018 19.9 (00:00) 9.6 (00:00) 14.8 6.39 (02:10) 2.78 (13:40) 10.8 10.2 0.6 0 0
23-09-2018 28.8 (14:00) 14.8 (03:00) 21.8 8.06 (16:10) 3.89 (15:40) 0.4 0 0 0 0.4
22-09-2018 29.6 (15:20) 15.7 (07:50) 22.7 5.56 (16:20) 2.78 (15:50) 0.2 0.2 0 0 0
21-09-2018 26.8 (14:10) 17.3 (06:00) 22 6.94 (18:50) 3.61 (18:50) 2.2 0 0 0 2.2
20-09-2018 30.1 (16:00) 16 (08:10) 23.1 6.67 (18:30) 3.33 (18:50) 0 0 0 0 0

Gráficas

Temp. máximas Temp. mínimas Temp. medias Precipitaciones Rachas de viento máximas Velocidades máximas media en intervalos de 10 minutos

Datos horarios

Fecha y hora oficial Temperatura (ºC) Velocidad del viento (km/h) Dirección del viento Racha (km/h) Dirección de racha Precipitación (mm) Presión (hPa) Tendencia (hPa) Humedad (%)
2018-10-19 23:00:00 14.3 0 Calma 4 Este 0 -- -- 96
2018-10-19 22:00:00 14.6 0 Calma 3 Sudeste 0 -- -- 94
2018-10-19 21:00:00 15.1 2 Sudeste 4 Sudeste 0 -- -- 92
2018-10-19 20:00:00 17 0 Calma 6 Norte 0 -- -- 87
2018-10-19 19:00:00 18.5 2 Nordeste 16 Noroeste 0 -- -- 83
2018-10-19 18:00:00 19.6 5 Norte 14 Nordeste 0 -- -- 79
2018-10-19 17:00:00 20.6 5 Norte 10 Noroeste 0 -- -- 76
2018-10-19 16:00:00 20.5 4 Noroeste 12 Oeste 0 -- -- 78
2018-10-19 15:00:00 20.5 5 Norte 12 Norte 0 -- -- 79
2018-10-19 14:00:00 20.4 4 Norte 12 Norte 0 -- -- 76
2018-10-19 13:00:00 20.4 4 Norte 13 Nordeste 0 -- -- 78
2018-10-19 12:00:00 19.2 3 Norte 11 Este 0 -- -- 85
2018-10-19 11:00:00 18 0 Calma 2 Oeste 0 -- -- 91
2018-10-19 10:00:00 17.1 0 Calma 3 Oeste 0 -- -- 94
2018-10-19 09:00:00 16.7 0 Calma 5 Nordeste 0 -- -- 95
2018-10-19 08:00:00 16.6 0 Calma 4 Este 0 -- -- 95
2018-10-19 07:00:00 16.6 0 Calma 6 Noroeste 0 -- -- 95
2018-10-19 06:00:00 16.8 2 Sudeste 11 Norte 0 -- -- 94
2018-10-19 05:00:00 16.5 0 Calma 4 Sur 0 -- -- 95
2018-10-19 04:00:00 16.6 0 Calma 5 Sur 0 -- -- 95
2018-10-19 03:00:00 16.5 0 Calma 5 Sudoeste 0 -- -- 95
2018-10-19 02:00:00 16.5 0 Calma 4 Sur 0 -- -- 95
2018-10-19 01:00:00 16.5 0 Calma 5 Este 0 -- -- 94
2018-10-19 00:00:00 16.5 0 Calma 2 Este 0 -- -- 94
2018-10-18 23:00:00 16.7 0 Calma 6 Noroeste 0 -- -- 93
2018-10-18 22:00:00 17 0 Calma 7 Nordeste 0 -- -- 91
2018-10-18 21:00:00 17.2 3 Nordeste 7 Nordeste 0 -- -- 90
2018-10-18 20:00:00 17.4 2 Nordeste 13 Norte 0 -- -- 88
2018-10-18 19:00:00 17.6 4 Norte 14 Norte 0 -- -- 87
2018-10-18 18:00:00 18.1 5 Norte 13 Norte 0 -- -- 85
2018-10-18 17:00:00 18.3 6 Nordeste 14 Noroeste 0 -- -- 83
2018-10-18 16:00:00 19.3 6 Norte 15 Noroeste 0 -- -- 80
2018-10-18 15:00:00 19.2 5 Noroeste 11 Noroeste 0 -- -- 78
2018-10-18 14:00:00 18.1 3 Norte 9 Nordeste 0 -- -- 85
2018-10-18 13:00:00 17.2 5 Norte 11 Noroeste 0 -- -- 88
2018-10-18 12:00:00 15.7 0 Calma 0 Calma 0 -- -- 90
2018-10-18 11:00:00 14.4 0 Calma 0 Calma 0 -- -- 94
2018-10-18 10:00:00 14 0 Calma 2 Noroeste 0 -- -- 95
2018-10-18 09:00:00 13.8 0 Calma 0 Calma 0 -- -- 96
2018-10-18 08:00:00 13.6 0 Calma 0 Calma 0 -- -- 96
2018-10-18 07:00:00 13.6 0 Calma 0 Calma 0 -- -- 97
2018-10-18 06:00:00 13.5 0 Calma 3 Oeste 0 -- -- 97
2018-10-18 05:00:00 13.4 0 Calma 4 Nordeste 0 -- -- 97
2018-10-18 04:00:00 13.3 0 Calma 5 Oeste 0 -- -- 98
2018-10-18 03:00:00 13.1 0 Calma 0 Calma 0 -- -- 98
2018-10-18 02:00:00 13.1 0 Calma 0 Calma 0 -- -- 98
2018-10-18 01:00:00 13 0 Calma 0 Calma 0 -- -- 98
2018-10-18 00:00:00 12.3 0 Calma 3 Nordeste 0 -- -- 97
2018-10-17 23:00:00 12.2 0 Calma 3 Sudeste 0 -- -- 96
2018-10-17 22:00:00 12.5 0 Calma 4 Este 0 -- -- 94
2018-10-17 21:00:00 13.7 0 Calma 5 Sudeste 0 -- -- 91
2018-10-17 20:00:00 15.3 0 Calma 8 Noroeste 0 -- -- 90
2018-10-17 19:00:00 17.9 4 Noroeste 13 Noroeste 0 -- -- 83
2018-10-17 18:00:00 19.4 8 Noroeste 16 Noroeste 0 -- -- 78
2018-10-17 17:00:00 20.6 8 Noroeste 17 Noroeste 0 -- -- 73
2018-10-17 16:00:00 20.5 10 Noroeste 17 Noroeste 0 -- -- 74
2018-10-17 15:00:00 21.7 6 Oeste 14 Noroeste 0 -- -- 70
2018-10-17 14:00:00 20.3 3 Nordeste 9 Este 0 -- -- 71
2018-10-17 13:00:00 19.2 3 Sudeste 8 Sudeste 0 -- -- 74
2018-10-17 12:00:00 18.3 2 Sur 5 Sur 0 -- -- 77
2018-10-17 11:00:00 15.8 0 Calma 3 Sudoeste 0 -- -- 91
2018-10-17 10:00:00 14.6 0 Calma 2 Norte 0 -- -- 96
2018-10-17 09:00:00 13.9 0 Calma 0 Calma 0 -- -- 97
2018-10-17 08:00:00 13.9 0 Calma 0 Calma 0 -- -- 97
2018-10-17 07:00:00 14 0 Calma 0 Calma 0 -- -- 96
2018-10-17 06:00:00 14.1 0 Calma 0 Calma 0 -- -- 96
2018-10-17 05:00:00 14.1 0 Calma 0 Calma 0 -- -- 96
2018-10-17 04:00:00 14 0 Calma 0 Calma 0 -- -- 96
2018-10-17 03:00:00 13.8 0 Calma 3 Nordeste 0 -- -- 96
2018-10-17 02:00:00 13.5 0 Calma 2 Sur 0 -- -- 96
2018-10-17 01:00:00 13.4 2 Sudeste 4 Sudeste 0 -- -- 95
2018-10-17 00:00:00 13.9 0 Calma 4 Sudeste 0 -- -- 96
2018-10-16 23:00:00 14.2 0 Calma 5 Este 0 -- -- 93
2018-10-16 22:00:00 14.1 0 Calma 5 Sudeste 0 -- -- 95
2018-10-16 21:00:00 13.5 0 Calma 4 Sur 0 -- -- 94
2018-10-16 20:00:00 14.6 2 Sudeste 5 Sudeste 0 -- -- 89
2018-10-16 19:00:00 17.4 3 Norte 14 Noroeste 0 -- -- 83
2018-10-16 18:00:00 18.7 6 Noroeste 14 Noroeste 0 -- -- 73
2018-10-16 17:00:00 18.6 5 Norte 16 Noroeste 0 -- -- 74
2018-10-16 16:00:00 19.7 6 Norte 18 Norte 0 -- -- 75
2018-10-16 15:00:00 20.1 6 Norte 20 Noroeste 0 -- -- 73
2018-10-16 14:00:00 20.7 8 Norte 14 Nordeste 0 -- -- 70
2018-10-16 13:00:00 -- -- -- -- -- -- -- -- --
2018-10-16 12:00:00 -- -- -- -- -- -- -- -- --
2018-10-16 11:00:00 -- 0 Calma 4 Sur 0.2 -- -- --
2018-10-16 10:00:00 12.5 0 Calma 2 Este 0 -- -- 98
2018-10-16 09:00:00 11.8 0 Calma 4 Este 0 -- -- 98
2018-10-16 08:00:00 11.7 0 Calma 5 Sudeste 0 -- -- 98
2018-10-16 07:00:00 11.8 2 Este 4 Sudeste 0 -- -- 98
2018-10-16 06:00:00 11.8 0 Calma 3 Este 0 -- -- 98
2018-10-16 05:00:00 11.8 0 Calma 3 Norte 0 -- -- 98
2018-10-16 04:00:00 11.9 0 Calma 2 Sur 0 -- -- 98
2018-10-16 03:00:00 12 0 Calma 3 Nordeste 0 -- -- 98
2018-10-16 02:00:00 11.5 0 Calma 4 Nordeste 0 -- -- 97
2018-10-16 01:00:00 10.7 0 Calma 2 Sudeste 0 -- -- 96
2018-10-16 00:00:00 11.3 0 Calma 3 Sudeste 0 -- -- 94
2018-10-15 23:00:00 12.3 2 Sudeste 3 Sudeste 0 -- -- 94
2018-10-15 22:00:00 13.4 2 Sur 5 Noroeste 0 -- -- 91
2018-10-15 21:00:00 15.4 0 Calma 5 Sur 0 -- -- 88
2018-10-15 20:00:00 17 3 Este 12 Nordeste 0 -- -- 81
2018-10-15 19:00:00 18.1 4 Nordeste 13 Nordeste 0 -- -- 73
2018-10-15 18:00:00 19.2 5 Este 17 Nordeste 0 -- -- 69
2018-10-15 17:00:00 20.8 8 Sudeste 20 Este 0 -- -- 65
2018-10-15 16:00:00 20.7 8 Este 17 Nordeste 0 -- -- 64
2018-10-15 15:00:00 20.3 4 Sudeste 10 Sudeste 0 -- -- 67
2018-10-15 14:00:00 19.5 7 Nordeste 12 Nordeste 0 -- -- 67
2018-10-15 13:00:00 18.6 3 Norte 7 Nordeste 0 -- -- 71
2018-10-15 12:00:00 18 2 Este 5 Nordeste 0 -- -- 78
2018-10-15 11:00:00 15.7 3 Nordeste 5 Nordeste 0 -- -- 87
2018-10-15 10:00:00 13.2 2 Norte 4 Noroeste 0 -- -- 98
2018-10-15 09:00:00 12.9 0 Calma 3 Oeste 0 -- -- 97
2018-10-15 08:00:00 13 0 Calma 4 Este 0 -- -- 97
2018-10-15 07:00:00 13 0 Calma 3 Este 0 -- -- 97
2018-10-15 06:00:00 12.9 0 Calma 4 Noroeste 0 -- -- 97
2018-10-15 05:00:00 12.8 0 Calma 2 Nordeste 0 -- -- 97
2018-10-15 04:00:00 12.8 0 Calma 3 Este 0 -- -- 97
2018-10-15 03:00:00 12.8 2 Este 6 Sudeste 0.2 -- -- 97
2018-10-15 02:00:00 12.9 0 Calma 4 Este 0 -- -- 97
2018-10-15 01:00:00 12.9 0 Calma 3 Este 0 -- -- 96
2018-10-15 00:00:00 13.1 2 Nordeste 7 Noroeste 0 -- -- 96
2018-10-14 23:00:00 13.1 0 Calma 6 Sudeste 0 -- -- 96
2018-10-14 22:00:00 13.2 0 Calma 8 Noroeste 0 -- -- 94
2018-10-14 21:00:00 13.4 0 Calma 4 Nordeste 0.2 -- -- 96
2018-10-14 20:00:00 13.7 0 Calma 4 Nordeste 0.2 -- -- 95
2018-10-14 19:00:00 13.9 2 Sudoeste 9 Norte 0 -- -- 93
2018-10-14 18:00:00 14.3 0 Calma 18 Noroeste 0 -- -- 93
2018-10-14 17:00:00 14.7 8 Oeste 18 Oeste 0 -- -- 90
2018-10-14 16:00:00 14.7 3 Noroeste 22 Oeste 0.6 -- -- 94
2018-10-14 15:00:00 14.8 2 Noroeste 9 Nordeste 8.4 -- -- 96
2018-10-14 14:00:00 14.8 0 Calma 27 Oeste 24.2 -- -- 94
2018-10-14 13:00:00 16.5 8 Oeste 25 Oeste 0 -- -- 80
2018-10-14 12:00:00 19.7 10 Noroeste 27 Noroeste 0 -- -- 72
2018-10-14 11:00:00 24.5 6 Nordeste 17 Sur 0 -- -- 57
2018-10-14 10:00:00 23.2 4 Norte 25 Oeste 0 -- -- 61
2018-10-14 09:00:00 23.4 6 Sudoeste 28 Sur 0 -- -- 60
2018-10-14 08:00:00 22.9 9 Sudeste 30 Este 0 -- -- 60
2018-10-14 07:00:00 23.5 10 Sur 35 Sudoeste 0 -- -- 58
2018-10-14 06:00:00 22.6 11 Sur 30 Sur 0 -- -- 62
2018-10-14 05:00:00 20.7 2 Sur 16 Sudeste 0 -- -- 71
2018-10-14 04:00:00 23 8 Sudeste 20 Sudoeste 0 -- -- 59
2018-10-14 03:00:00 24.4 8 Sudoeste 32 Sur 0 -- -- 53
2018-10-14 02:00:00 24.5 10 Sudoeste 35 Sudoeste 0 -- -- 56
2018-10-14 01:00:00 23.6 9 Sudoeste 26 Sudoeste 0 -- -- 61
2018-10-14 00:00:00 21.1 4 Este 18 Sur 0 -- -- 73
2018-10-13 23:00:00 21.5 4 Sudeste 14 Sur 0 -- -- 68
2018-10-13 22:00:00 17.9 3 Noroeste 11 Sudoeste 0 -- -- 87
2018-10-13 21:00:00 18.8 0 Calma 4 Nordeste 0 -- -- 84
2018-10-13 20:00:00 20.7 0 Calma 8 Sur 0 -- -- 78
2018-10-13 19:00:00 23.9 3 Sudoeste 16 Sur 0 -- -- 68
2018-10-13 18:00:00 27.2 3 Sur 20 Oeste 0 -- -- 54
2018-10-13 17:00:00 28.4 7 Sur 29 Sudoeste 0 -- -- 48
2018-10-13 16:00:00 28.9 11 Sudoeste 26 Sudoeste 0 -- -- 48
2018-10-13 15:00:00 27.5 10 Sur 33 Sudoeste 0 -- -- 51
2018-10-13 14:00:00 27.3 10 Sur 38 Sur 0 -- -- 52
2018-10-13 13:00:00 26.5 9 Sur 37 Sudeste 0 -- -- 54
2018-10-13 12:00:00 26 6 Este 36 Sur 0 -- -- 57
2018-10-13 11:00:00 25.1 9 Sur 26 Sur 0 -- -- 58
2018-10-13 10:00:00 23.4 9 Sudeste 31 Sudoeste 0 -- -- 63
2018-10-13 09:00:00 16.5 2 Sudeste 10 Nordeste 0 -- -- 93
2018-10-13 08:00:00 15.4 3 Nordeste 6 Nordeste 0 -- -- 94
2018-10-13 07:00:00 15.6 0 Calma 8 Sur 0 -- -- 93
2018-10-13 06:00:00 16 2 Sudeste 8 Nordeste 0 -- -- 92
2018-10-13 05:00:00 16.7 3 Este 26 Este 0 -- -- 89
2018-10-13 04:00:00 16.1 2 Oeste 8 Oeste 0 -- -- 92
2018-10-13 03:00:00 15.7 2 Nordeste 8 Nordeste 0 -- -- 93
2018-10-13 02:00:00 14.8 0 Calma 6 Oeste 0 -- -- 95
2018-10-13 01:00:00 14.7 0 Calma 5 Este 0 -- -- 95
2018-10-13 00:00:00 14.9 0 Calma 6 Sur 0 -- -- 94
2018-10-12 23:00:00 15.7 3 Sudeste 6 Sudeste 0 -- -- 93
2018-10-12 22:00:00 16.5 0 Calma 4 Este 0 -- -- 90
2018-10-12 21:00:00 17.9 2 Sudeste 5 Sudeste 0 -- -- 86
2018-10-12 20:00:00 20.1 0 Calma 10 Nordeste 0 -- -- 78
2018-10-12 19:00:00 22.9 4 Sudeste 9 Sur 0 -- -- 73
2018-10-12 18:00:00 25.9 4 Sudeste 9 Sur 0 -- -- 64
2018-10-12 17:00:00 27.3 4 Nordeste 22 Nordeste 0 -- -- 52
2018-10-12 16:00:00 27.4 7 Sur 33 Oeste 0 -- -- 49
2018-10-12 15:00:00 27.4 9 Sudoeste 34 Sur 0 -- -- 52
2018-10-12 14:00:00 26.6 9 Sudoeste 32 Oeste 0 -- -- 52
2018-10-12 13:00:00 27 9 Oeste 28 Sudoeste 0 -- -- 53
2018-10-12 12:00:00 26 8 Nordeste 27 Sudoeste 0 -- -- 57
2018-10-12 11:00:00 24 10 Este 28 Sudoeste 0 -- -- 63
2018-10-12 10:00:00 22.8 9 Sur 24 Sudeste 0 -- -- 64
2018-10-12 09:00:00 21.5 8 Sur 17 Este 0 -- -- 69
2018-10-12 08:00:00 20.9 6 Sudeste 18 Este 0 -- -- 71
2018-10-12 07:00:00 18.7 3 Sudeste 17 Sur 0 -- -- 83
2018-10-12 06:00:00 19.2 8 Sudeste 18 Sudeste 0 -- -- 80
2018-10-12 05:00:00 15.4 2 Oeste 8 Sudoeste 0 -- -- 96
2018-10-12 04:00:00 15.3 2 Norte 7 Nordeste 0 -- -- 98
2018-10-12 03:00:00 14.2 3 Nordeste 6 Sur 0 -- -- 97
2018-10-12 02:00:00 14.2 0 Calma 6 Nordeste 0 -- -- 96
2018-10-12 01:00:00 14.9 0 Calma 5 Sudeste 0 -- -- 95
2018-10-12 00:00:00 15.5 0 Calma 6 Sudeste 0 -- -- 95
2018-10-11 23:00:00 16.4 3 Sudeste 4 Sudeste 0 -- -- 92
2018-10-11 22:00:00 18 0 Calma 4 Oeste 0 -- -- 91
2018-10-11 21:00:00 18.3 6 Noroeste 13 Noroeste 0 -- -- 90
2018-10-11 20:00:00 19.1 3 Noroeste 7 Noroeste 0 -- -- 89
2018-10-11 19:00:00 20.2 0 Calma 6 Sur 0 -- -- 89
2018-10-11 18:00:00 21.7 0 Calma 20 Sudoeste 0.4 -- -- 80
2018-10-11 17:00:00 25.2 9 Sudoeste 31 Sudoeste 0 -- -- 54
2018-10-11 16:00:00 26.3 13 Sur 32 Sudeste 0 -- -- 52
2018-10-11 15:00:00 24.3 8 Sur 37 Sur 0 -- -- 55
2018-10-11 14:00:00 24.9 7 Sur 31 Este 0 -- -- 55
2018-10-11 13:00:00 23.7 11 Sur 23 Sudoeste 0 -- -- 58
2018-10-11 12:00:00 22.4 3 Norte 24 Oeste 0 -- -- 61
2018-10-11 11:00:00 21.5 9 Sudoeste 18 Sudoeste 0 -- -- 63
2018-10-11 10:00:00 20.9 5 Oeste 15 Sudoeste 0 -- -- 63
2018-10-11 09:00:00 20.1 6 Este 15 Este 0 -- -- 66
2018-10-11 08:00:00 19.9 5 Sudeste 24 Sudoeste 0 -- -- 65
2018-10-11 07:00:00 21 9 Sudoeste 37 Sudoeste 0 -- -- 61
2018-10-11 06:00:00 21 7 Sudoeste 32 Sudoeste 0 -- -- 61
2018-10-11 05:00:00 20.6 4 Este 26 Sudoeste 0 -- -- 62
2018-10-11 04:00:00 20.2 5 Norte 19 Sudoeste 0 -- -- 63
2018-10-11 03:00:00 19.7 6 Oeste 28 Sudoeste 0 -- -- 64
2018-10-11 02:00:00 19.9 4 Sudeste 19 Sudeste 0 -- -- 63
2018-10-11 01:00:00 19.7 5 Nordeste 16 Este 0 -- -- 64
2018-10-11 00:00:00 18 4 Sur 16 Sudeste 0 -- -- 74
2018-10-10 23:00:00 15.1 2 Sur 9 Este 0 -- -- 87
2018-10-10 22:00:00 15.7 3 Sudeste 10 Sur 0 -- -- 83
2018-10-10 21:00:00 16 2 Sudeste 11 Sudeste 0 -- -- 81
2018-10-10 20:00:00 18.2 3 Sur 15 Sur 0 -- -- 72
2018-10-10 19:00:00 19.6 3 Sudeste 15 Oeste 0 -- -- 69
2018-10-10 18:00:00 21.1 9 Sudoeste 24 Sudoeste 0 -- -- 58
2018-10-10 17:00:00 23.1 9 Sudoeste 28 Sudoeste 0 -- -- 55
2018-10-10 16:00:00 22.9 11 Sudoeste 28 Sudoeste 0 -- -- 57
2018-10-10 15:00:00 22.3 8 Sudoeste 26 Este 0 -- -- 61
2018-10-10 14:00:00 22.1 8 Sudoeste 39 Sudoeste 0 -- -- 62
2018-10-10 13:00:00 21.7 6 Sur 37 Sudoeste 0 -- -- 62
2018-10-10 12:00:00 19.7 5 Nordeste 14 Nordeste 0 -- -- 67
2018-10-10 11:00:00 15.3 0 Calma 3 Oeste 0 -- -- 93
2018-10-10 10:00:00 14.1 0 Calma 4 Este 0 -- -- 95
2018-10-10 09:00:00 11.9 0 Calma 5 Sudoeste 0 -- -- 97
2018-10-10 08:00:00 11.7 0 Calma 6 Sudoeste 0 -- -- 96
2018-10-10 07:00:00 12.1 2 Oeste 14 Este 0 -- -- 95
2018-10-10 06:00:00 12.5 0 Calma 3 Sur 0 -- -- 96
2018-10-10 05:00:00 12.5 0 Calma 2 Este 0 -- -- 96
2018-10-10 04:00:00 12.6 0 Calma 4 Noroeste 0.4 -- -- 95
2018-10-10 03:00:00 12.6 0 Calma 4 Este 0.2 -- -- 94
2018-10-10 02:00:00 12.5 0 Calma 8 Sudeste 0 -- -- 94
2018-10-10 01:00:00 12.2 3 Sudeste 5 Sudeste 0 -- -- 93
2018-10-10 00:00:00 12.3 0 Calma 4 Sudeste 0 -- -- 92
2018-10-09 23:00:00 12.7 0 Calma 8 Sudeste 0 -- -- 89
2018-10-09 22:00:00 14.1 2 Este 11 Sudeste 0 -- -- 81
2018-10-09 21:00:00 16 4 Sudeste 30 Este 0 -- -- 74
2018-10-09 20:00:00 20 14 Este 30 Este 0 -- -- 53
2018-10-09 19:00:00 20.5 4 Este 13 Sudeste 0 -- -- 63
2018-10-09 18:00:00 21.1 4 Sudeste 25 Sudeste 0 -- -- 56
2018-10-09 17:00:00 22.8 7 Sudoeste 18 Sudoeste 0 -- -- 50
2018-10-09 16:00:00 22.9 4 Sudoeste 26 Sudoeste 0 -- -- 50
2018-10-09 15:00:00 22.7 8 Sur 22 Sudoeste 0 -- -- 51
2018-10-09 14:00:00 20.6 3 Sur 7 Sudoeste 0 -- -- 63
2018-10-09 13:00:00 18.3 3 Sudoeste 6 Noroeste 0 -- -- 73
2018-10-09 12:00:00 14.5 0 Calma 5 Sudeste 0 -- -- 88
2018-10-09 11:00:00 12.4 2 Este 5 Oeste 0 -- -- 93
2018-10-09 10:00:00 11.8 0 Calma 7 Sudoeste 0 -- -- 96
2018-10-09 09:00:00 11.7 3 Sur 8 Sudoeste 0 -- -- 96
2018-10-09 08:00:00 11.8 0 Calma 4 Nordeste 0 -- -- 98
2018-10-09 07:00:00 11.6 2 Norte 5 Norte 0 -- -- 98
2018-10-09 06:00:00 11.4 0 Calma 3 Norte 0 -- -- 98
2018-10-09 05:00:00 10.8 3 Este 5 Sudeste 0 -- -- 98
2018-10-09 04:00:00 11.1 0 Calma 5 Sudeste 0 -- -- 95
2018-10-09 03:00:00 12.3 0 Calma 3 Este 0 -- -- 97
2018-10-09 02:00:00 12.1 0 Calma 3 Sur 0 -- -- 97
2018-10-09 01:00:00 11.8 0 Calma 3 Noroeste 0 -- -- 97
2018-10-09 00:00:00 11.4 0 Calma 4 Norte 0 -- -- 97
2018-10-08 23:00:00 11.5 2 Sudeste 4 Norte 0 -- -- 95
2018-10-08 22:00:00 12.4 0 Calma 6 Sudeste 0 -- -- 95
2018-10-08 21:00:00 12.7 4 Sudeste 6 Sudeste 0 -- -- 93
2018-10-08 20:00:00 14.4 0 Calma 7 Noroeste 0 -- -- 89
2018-10-08 19:00:00 14.9 4 Noroeste 13 Norte 0 -- -- 87
2018-10-08 18:00:00 15.5 6 Norte 13 Norte 0 -- -- 84
2018-10-08 17:00:00 15.7 5 Norte 14 Noroeste 0 -- -- 82
2018-10-08 16:00:00 16.2 6 Norte 17 Noroeste 0 -- -- 78
2018-10-08 15:00:00 17.1 8 Noroeste 15 Noroeste 0 -- -- 75
2018-10-08 14:00:00 16.2 7 Nordeste 14 Norte 0 -- -- 79
2018-10-08 13:00:00 16.3 3 Noroeste 11 Noroeste 0 -- -- 82
2018-10-08 12:00:00 14.8 5 Norte 11 Nordeste 0 -- -- 88
2018-10-08 11:00:00 13.9 0 Calma 3 Norte 0 -- -- 98
2018-10-08 10:00:00 12.5 0 Calma 3 Noroeste 0 -- -- 99
2018-10-08 09:00:00 11.5 0 Calma 2 Este 0 -- -- 99
2018-10-08 08:00:00 11 0 Calma 2 Sur 0 -- -- 98
2018-10-08 07:00:00 11.1 0 Calma 4 Norte 0 -- -- 98
2018-10-08 06:00:00 11.7 0 Calma 7 Noroeste 0 -- -- 96
2018-10-08 05:00:00 13.3 3 Noroeste 12 Este 0 -- -- 95
2018-10-08 04:00:00 13.9 4 Norte 18 Noroeste 1.2 -- -- 95
2018-10-08 03:00:00 14.3 3 Noroeste 12 Oeste 0.2 -- -- 95
2018-10-08 02:00:00 14.4 5 Noroeste 14 Sur 1 -- -- 96
2018-10-08 01:00:00 14.2 3 Oeste 17 Norte 1.4 -- -- 96
2018-10-08 00:00:00 14 4 Sudoeste 26 Oeste 4.6 -- -- 96
2018-10-07 23:00:00 14 5 Noroeste 20 Norte 5 -- -- 96
2018-10-07 22:00:00 14 4 Oeste 28 Oeste 3 -- -- 97
2018-10-07 21:00:00 13.7 8 Noroeste 26 Noroeste 1 -- -- 97
2018-10-07 20:00:00 13.4 8 Noroeste 30 Sudoeste 5.2 -- -- 97
2018-10-07 19:00:00 12.9 5 Oeste 21 Oeste 4 -- -- 97
2018-10-07 18:00:00 12.8 7 Oeste 24 Sudoeste 4.4 -- -- 97
2018-10-07 17:00:00 12.9 5 Oeste 31 Oeste 4.2 -- -- 96
2018-10-07 16:00:00 13.1 9 Noroeste 26 Oeste 2 -- -- 96
2018-10-07 15:00:00 12.6 2 Oeste 11 Sudoeste 14.4 -- -- 96
2018-10-07 14:00:00 13.1 5 Noroeste 25 Oeste 5.4 -- -- 90
2018-10-07 13:00:00 14.9 9 Oeste 21 Noroeste 0.2 -- -- 79
2018-10-07 12:00:00 14.6 10 Noroeste 34 Oeste 0.2 -- -- 77
2018-10-07 11:00:00 14.8 9 Oeste 18 Sudoeste 0 -- -- 78
2018-10-07 10:00:00 12.5 4 Sudoeste 11 Sudoeste 0 -- -- 95
2018-10-07 09:00:00 10.7 0 Calma 8 Noroeste 0 -- -- 97
2018-10-07 08:00:00 10.9 0 Calma 9 Oeste 0 -- -- 95
2018-10-07 07:00:00 11.5 0 Calma 7 Sudoeste 0.6 -- -- 96
2018-10-07 06:00:00 11.2 3 Sur 21 Oeste 0 -- -- 94
2018-10-07 05:00:00 11.5 2 Norte 8 Noroeste 0.8 -- -- 94
2018-10-07 04:00:00 11.7 3 Nordeste 14 Norte 0.4 -- -- 94
2018-10-07 03:00:00 12.3 5 Noroeste 19 Sudoeste 1.6 -- -- 90
2018-10-07 02:00:00 12.4 2 Nordeste 22 Sudoeste 1.2 -- -- 91
2018-10-07 01:00:00 12.3 4 Oeste 20 Oeste 0.2 -- -- 91
2018-10-07 00:00:00 13.2 6 Oeste 35 Oeste 0.6 -- -- 89
2018-10-06 23:00:00 13.5 13 Oeste 38 Sudoeste 0.4 -- -- 86
2018-10-06 22:00:00 13.1 2 Nordeste 10 Nordeste 1.2 -- -- 92
2018-10-06 21:00:00 13.7 3 Sudeste 17 Sur 0.4 -- -- 85
2018-10-06 20:00:00 14.1 4 Sudeste 16 Sur 0 -- -- 83
2018-10-06 19:00:00 14.7 6 Este 34 Sudoeste 0.8 -- -- 86
2018-10-06 18:00:00 16.5 9 Noroeste 28 Oeste 0.8 -- -- 85
2018-10-06 17:00:00 18.6 3 Noroeste 33 Noroeste 0 -- -- 70
2018-10-06 16:00:00 19.2 10 Noroeste 28 Noroeste 0 -- -- 66
2018-10-06 15:00:00 19.6 11 Oeste 28 Noroeste 0 -- -- 67
2018-10-06 14:00:00 21.5 13 Noroeste 26 Oeste 0 -- -- 62
2018-10-06 13:00:00 20.3 13 Noroeste 24 Oeste 0 -- -- 72
2018-10-06 12:00:00 20.4 6 Sudeste 17 Sudeste 0 -- -- 77
2018-10-06 11:00:00 18.1 2 Norte 7 Nordeste 0 -- -- 83
2018-10-06 10:00:00 13.1 0 Calma 2 Noroeste 0 -- -- 99
2018-10-06 09:00:00 9.5 0 Calma 4 Sur 0 -- -- 98
2018-10-06 08:00:00 9.1 0 Calma 4 Sudeste 0 -- -- 97
2018-10-06 07:00:00 9.2 0 Calma 4 Sudeste 0 -- -- 97
2018-10-06 06:00:00 9.4 0 Calma 4 Sudeste 0 -- -- 97
2018-10-06 05:00:00 9.4 0 Calma 3 Sur 0 -- -- 97
2018-10-06 04:00:00 9.8 0 Calma 3 Sudeste 0 -- -- 96
2018-10-06 03:00:00 9.8 0 Calma 2 Sudeste 0 -- -- 95
2018-10-06 02:00:00 10.4 0 Calma 3 Sudeste 0 -- -- 95
2018-10-06 01:00:00 10.8 0 Calma 3 Este 0 -- -- 94
2018-10-06 00:00:00 11.6 0 Calma 3 Sudeste 0 -- -- 94
2018-10-05 23:00:00 12.4 0 Calma 4 Este 0 -- -- 90
2018-10-05 22:00:00 13.7 0 Calma 4 Sudeste 0 -- -- 88
2018-10-05 21:00:00 15.3 0 Calma 5 Sudeste 0 -- -- 82
2018-10-05 20:00:00 18.4 3 Sudeste 10 Noroeste 0 -- -- 72
2018-10-05 19:00:00 23 5 Noroeste 20 Noroeste 0 -- -- 54
2018-10-05 18:00:00 27.3 6 Noroeste 18 Noroeste 0 -- -- 44
2018-10-05 17:00:00 29.6 4 Sur 20 Sur 0 -- -- 37
2018-10-05 16:00:00 29.1 9 Sur 18 Sudoeste 0 -- -- 37
2018-10-05 15:00:00 28.6 6 Sudeste 26 Sur 0 -- -- 38
2018-10-05 14:00:00 27.5 9 Sur 28 Sur 0 -- -- 37
2018-10-05 13:00:00 26.4 11 Sur 32 Sur 0 -- -- 41
2018-10-05 12:00:00 25.2 8 Sur 22 Sudoeste 0 -- -- 43
2018-10-05 11:00:00 23.7 8 Sur 26 Sur 0 -- -- 45
2018-10-05 10:00:00 20.9 7 Sur 21 Este 0 -- -- 52
2018-10-05 09:00:00 14.7 4 Nordeste 12 Este 0 -- -- 82
2018-10-05 08:00:00 12.2 3 Nordeste 12 Oeste 0 -- -- 92
2018-10-05 07:00:00 11.4 4 Nordeste 10 Nordeste 0 -- -- 98
2018-10-05 06:00:00 10.6 3 Este 8 Este 0 -- -- 99
2018-10-05 05:00:00 10.1 0 Calma 4 Sur 0 -- -- 97
2018-10-05 04:00:00 10.1 0 Calma 7 Sur 0 -- -- 97
2018-10-05 03:00:00 10.8 0 Calma 4 Sur 0 -- -- 97
2018-10-05 02:00:00 12.3 0 Calma 3 Nordeste 0 -- -- 98
2018-10-05 01:00:00 11.5 0 Calma 4 Sudeste 0 -- -- 97
2018-10-05 00:00:00 11.1 2 Sudeste 5 Sudeste 0 -- -- 96
2018-10-04 23:00:00 12.1 2 Sudeste 4 Sudeste 0 -- -- 95
2018-10-04 22:00:00 13 0 Calma 3 Sudeste 0 -- -- 93
2018-10-04 21:00:00 14.3 0 Calma 5 Este 0 -- -- 90
2018-10-04 20:00:00 16.8 0 Calma 10 Noroeste 0 -- -- 85
2018-10-04 19:00:00 20.3 5 Noroeste 15 Noroeste 0 -- -- 73
2018-10-04 18:00:00 22 9 Noroeste 17 Noroeste 0 -- -- 67
2018-10-04 17:00:00 22.9 11 Noroeste 20 Noroeste 0 -- -- 64
2018-10-04 16:00:00 23.6 11 Noroeste 23 Noroeste 0 -- -- 64
2018-10-04 15:00:00 23.6 5 Oeste 13 Este 0 -- -- 62
2018-10-04 14:00:00 21.7 3 Oeste 7 Sur 0 -- -- 65
2018-10-04 13:00:00 18.4 0 Calma 6 Sudoeste 0 -- -- 75
2018-10-04 12:00:00 15 3 Norte 6 Norte 0 -- -- 86
2018-10-04 11:00:00 13.4 0 Calma 4 Norte 0 -- -- 92
2018-10-04 10:00:00 12.2 0 Calma 3 Noroeste 0 -- -- 98
2018-10-04 09:00:00 11.3 0 Calma 2 Nordeste 0 -- -- 98
2018-10-04 08:00:00 10.9 0 Calma 2 Nordeste 0 -- -- 98
2018-10-04 07:00:00 10.6 0 Calma 4 Sudeste 0 -- -- 98
2018-10-04 06:00:00 10.5 0 Calma 3 Sur 0 -- -- 98
2018-10-04 05:00:00 10.5 0 Calma 4 Nordeste 0 -- -- 97
2018-10-04 04:00:00 10.4 0 Calma 2 Noroeste 0 -- -- 97
2018-10-04 03:00:00 9.5 0 Calma 4 Nordeste 0 -- -- 97
2018-10-04 02:00:00 9.6 0 Calma 5 Sudeste 0 -- -- 94
2018-10-04 01:00:00 10.9 0 Calma 4 Sudeste 0 -- -- 93
2018-10-04 00:00:00 12.2 0 Calma 3 Nordeste 0 -- -- 94
2018-10-03 23:00:00 11.3 0 Calma 4 Sudeste 0 -- -- 95
2018-10-03 22:00:00 11.4 0 Calma 4 Sudeste 0 -- -- 93
2018-10-03 21:00:00 12.6 0 Calma 5 Sudeste 0 -- -- 88
2018-10-03 20:00:00 15.2 2 Sudeste 12 Noroeste 0 -- -- 81
2018-10-03 19:00:00 17.3 6 Noroeste 21 Noroeste 0 -- -- 74
2018-10-03 18:00:00 18.9 12 Noroeste 23 Noroeste 0 -- -- 63
2018-10-03 17:00:00 20.7 12 Noroeste 21 Noroeste 0 -- -- 55
2018-10-03 16:00:00 21.5 8 Noroeste 21 Norte 0 -- -- 54
2018-10-03 15:00:00 21.7 8 Sudeste 16 Este 0 -- -- 50
2018-10-03 14:00:00 20.7 3 Norte 12 Nordeste 0 -- -- 54
2018-10-03 13:00:00 19.4 2 Sudeste 5 Sudeste 0 -- -- 56
2018-10-03 12:00:00 15.6 0 Calma 5 Nordeste 0 -- -- 68
2018-10-03 11:00:00 11.6 2 Sur 4 Sur 0 -- -- 82
2018-10-03 10:00:00 7.4 0 Calma 2 Este 0 -- -- 99
2018-10-03 09:00:00 6.5 0 Calma 2 Sudeste 0 -- -- 98
2018-10-03 08:00:00 6.5 0 Calma 2 Sudeste 0 -- -- 98
2018-10-03 07:00:00 6.3 0 Calma 2 Nordeste 0 -- -- 98
2018-10-03 06:00:00 5.5 0 Calma 0 Calma 0 -- -- 97
2018-10-03 05:00:00 5.6 0 Calma 2 Sudeste 0 -- -- 96
2018-10-03 04:00:00 5.9 0 Calma 3 Sudeste 0 -- -- 96
2018-10-03 03:00:00 6 0 Calma 3 Sudeste 0 -- -- 95
2018-10-03 02:00:00 6.5 0 Calma 2 Sur 0 -- -- 95
2018-10-03 01:00:00 7.1 0 Calma 2 Sudeste 0 -- -- 94
2018-10-03 00:00:00 7.6 0 Calma 3 Sudeste 0 -- -- 93
2018-10-02 23:00:00 8.3 0 Calma 3 Este 0 -- -- 91
2018-10-02 22:00:00 9.2 2 Sudeste 4 Sudeste 0 -- -- 89
2018-10-02 21:00:00 10.3 2 Sudeste 6 Sudeste 0 -- -- 84
2018-10-02 20:00:00 12.8 3 Sudeste 9 Nordeste 0 -- -- 75
2018-10-02 19:00:00 16.1 5 Norte 16 Norte 0 -- -- 57
2018-10-02 18:00:00 17 8 Norte 22 Noroeste 0 -- -- 51
2018-10-02 17:00:00 17.9 8 Norte 21 Noroeste 0 -- -- 48
2018-10-02 16:00:00 18.5 8 Norte 20 Noroeste 0 -- -- 47
2018-10-02 15:00:00 18.5 10 Noroeste 21 Noroeste 0 -- -- 51
2018-10-02 14:00:00 18.5 11 Noroeste 24 Noroeste 0 -- -- 45
2018-10-02 13:00:00 17.9 8 Noroeste 18 Noroeste 0 -- -- 48
2018-10-02 12:00:00 15.2 0 Calma 4 Este 0 -- -- 67
2018-10-02 11:00:00 11 0 Calma 4 Nordeste 0 -- -- 81
2018-10-02 10:00:00 7.2 0 Calma 3 Sudeste 0 -- -- 98
2018-10-02 09:00:00 6.3 0 Calma 2 Norte 0 -- -- 98
2018-10-02 08:00:00 5.3 0 Calma 3 Este 0 -- -- 97
2018-10-02 07:00:00 5.3 0 Calma 2 Sudeste 0 -- -- 96
2018-10-02 06:00:00 5.9 0 Calma 3 Sudeste 0 -- -- 95
2018-10-02 05:00:00 6.4 0 Calma 2 Sudeste 0 -- -- 94
2018-10-02 04:00:00 7.4 0 Calma 4 Sudeste 0 -- -- 91
2018-10-02 03:00:00 9 0 Calma 4 Sudeste 0 -- -- 90
2018-10-02 02:00:00 10.1 2 Sudeste 4 Sudeste 0 -- -- 90
2018-10-02 01:00:00 10.6 0 Calma 3 Sudeste 0 -- -- 90
2018-10-02 00:00:00 10.7 0 Calma 4 Este 0 -- -- 87
2018-10-01 23:00:00 12.2 0 Calma 3 Este 0 -- -- 83
2018-10-01 22:00:00 13 0 Calma 5 Sur 0 -- -- 79
2018-10-01 21:00:00 13.6 2 Sur 6 Sudoeste 0 -- -- 74
2018-10-01 20:00:00 14.3 2 Sur 12 Nordeste 0 -- -- 70
2018-10-01 19:00:00 15 3 Nordeste 18 Este 0 -- -- 69
2018-10-01 18:00:00 15.7 5 Norte 16 Nordeste 0 -- -- 63
2018-10-01 17:00:00 16.1 10 Noroeste 21 Nordeste 0 -- -- 67
2018-10-01 16:00:00 17.2 6 Norte 18 Noroeste 0 -- -- 57
2018-10-01 15:00:00 17.4 5 Norte 20 Norte 0 -- -- 58
2018-10-01 14:00:00 17.3 6 Norte 17 Norte 0 -- -- 59
2018-10-01 13:00:00 17.2 7 Noroeste 14 Noroeste 0 -- -- 62
2018-10-01 12:00:00 16.3 7 Este 17 Este 0 -- -- 66
2018-10-01 11:00:00 15.9 6 Noroeste 13 Noroeste 0 -- -- 71
2018-10-01 10:00:00 15.4 4 Noroeste 11 Noroeste 0 -- -- 83
2018-10-01 09:00:00 12.9 2 Sur 5 Sudoeste 0 -- -- 94
2018-10-01 08:00:00 12.4 0 Calma 2 Noroeste 0 -- -- 93
2018-10-01 07:00:00 13.2 0 Calma 5 Sudeste 0 -- -- 89
2018-10-01 06:00:00 14.2 0 Calma 7 Este 0 -- -- 87
2018-10-01 05:00:00 14.1 0 Calma 6 Sudeste 0 -- -- 91
2018-10-01 04:00:00 13.4 0 Calma 5 Noroeste 0 -- -- 95
2018-10-01 03:00:00 12.9 0 Calma 3 Sudeste 0 -- -- 95
2018-10-01 02:00:00 13.3 0 Calma 4 Sudeste 0 -- -- 95
2018-10-01 01:00:00 13.7 0 Calma 3 Sur 0 -- -- 94
2018-10-01 00:00:00 13.8 0 Calma 4 Sudeste 0 -- -- 94
2018-09-30 23:00:00 14.4 0 Calma 4 Sur 0 -- -- 93
2018-09-30 22:00:00 15.1 0 Calma 3 Nordeste 0 -- -- 90
2018-09-30 21:00:00 16.3 0 Calma 8 Norte 0 -- -- 86
2018-09-30 20:00:00 18.4 4 Noroeste 11 Noroeste 0 -- -- 77
2018-09-30 19:00:00 19.5 6 Oeste 17 Oeste 0 -- -- 72
2018-09-30 18:00:00 20.6 6 Norte 18 Norte 0 -- -- 68
2018-09-30 17:00:00 22 9 Noroeste 23 Noroeste 0 -- -- 62
2018-09-30 16:00:00 22.8 9 Noroeste 20 Noroeste 0 -- -- 58
2018-09-30 15:00:00 21.6 7 Noroeste 17 Noroeste 0 -- -- 62
2018-09-30 14:00:00 21.7 6 Norte 15 Norte 0 -- -- 55
2018-09-30 13:00:00 20.8 6 Sur 11 Sudoeste 0 -- -- 64
2018-09-30 12:00:00 17.5 2 Sudoeste 8 Noroeste 0 -- -- 77
2018-09-30 11:00:00 14.3 3 Nordeste 7 Noroeste 0 -- -- 87
2018-09-30 10:00:00 13.4 0 Calma 10 Oeste 0 -- -- 91
2018-09-30 09:00:00 13 0 Calma 6 Oeste 0 -- -- 92
2018-09-30 08:00:00 12.9 3 Oeste 5 Oeste 0 -- -- 94
2018-09-30 07:00:00 13 3 Oeste 6 Oeste 0 -- -- 95
2018-09-30 06:00:00 13.1 0 Calma 7 Oeste 0 -- -- 96
2018-09-30 05:00:00 13.1 3 Oeste 4 Oeste 0 -- -- 97
2018-09-30 04:00:00 13.1 0 Calma 2 Oeste 0 -- -- 97
2018-09-30 03:00:00 12.9 0 Calma 4 Sudoeste 0 -- -- 97
2018-09-30 02:00:00 12.9 0 Calma 2 Sudeste 0 -- -- 97
2018-09-30 01:00:00 12.5 0 Calma 0 Calma 0 -- -- 97
2018-09-30 00:00:00 11.7 0 Calma 3 Sudeste 0 -- -- 96
2018-09-29 23:00:00 12 0 Calma 4 Sudeste 0 -- -- 93
2018-09-29 22:00:00 13 2 Sudeste 6 Sudeste 0 -- -- 93
2018-09-29 21:00:00 14.3 3 Sudeste 6 Sur 0 -- -- 89
2018-09-29 20:00:00 16.9 2 Sur 12 Noroeste 0 -- -- 82
2018-09-29 19:00:00 19.1 5 Noroeste 22 Norte 0 -- -- 75
2018-09-29 18:00:00 20.7 11 Norte 21 Norte 0 -- -- 70
2018-09-29 17:00:00 22.5 8 Noroeste 17 Norte 0 -- -- 67
2018-09-29 16:00:00 21.4 7 Norte 17 Norte 0 -- -- 72
2018-09-29 15:00:00 22.9 7 Noroeste 16 Noroeste 0 -- -- 69
2018-09-29 14:00:00 23.3 5 Noroeste 15 Noroeste 0 -- -- 68
2018-09-29 13:00:00 21.9 5 Norte 12 Noroeste 0 -- -- 74
2018-09-29 12:00:00 21 3 Noroeste 10 Sudoeste 0 -- -- 79
2018-09-29 11:00:00 19.2 0 Calma 4 Sur 0 -- -- 87
2018-09-29 10:00:00 17.3 0 Calma 3 Sur 0 -- -- 93
2018-09-29 09:00:00 16.6 0 Calma 3 Sur 0 -- -- 96
2018-09-29 08:00:00 16.3 0 Calma 3 Sur 0 -- -- 96
2018-09-29 07:00:00 16.2 0 Calma 2 Sur 0 -- -- 95
2018-09-29 06:00:00 16.5 0 Calma 4 Norte 0 -- -- 96
2018-09-29 05:00:00 16.1 0 Calma 4 Nordeste 0 -- -- 97
2018-09-29 04:00:00 15.3 0 Calma 4 Sudeste 0 -- -- 96
2018-09-29 03:00:00 15.9 0 Calma 3 Sudeste 0 -- -- 94
2018-09-29 02:00:00 16.8 0 Calma 2 Este 0 -- -- 95
2018-09-29 01:00:00 16.5 0 Calma 4 Sudeste 0 -- -- 95
2018-09-29 00:00:00 16.4 0 Calma 2 Sur 0 -- -- 94
2018-09-28 23:00:00 16.8 0 Calma 6 Sudeste 0 -- -- 95
2018-09-28 22:00:00 16.6 3 Sudeste 5 Sudeste 0 -- -- 92
2018-09-28 21:00:00 18.7 3 Sudeste 10 Nordeste 0 -- -- 86
2018-09-28 20:00:00 20.4 5 Nordeste 13 Norte 0 -- -- 84
2018-09-28 19:00:00 21.1 10 Nordeste 21 Nordeste 0 -- -- 82
2018-09-28 18:00:00 22.3 10 Norte 23 Norte 0 -- -- 76
2018-09-28 17:00:00 23.9 12 Noroeste 25 Noroeste 0 -- -- 71
2018-09-28 16:00:00 24.7 8 Norte 21 Norte 0 -- -- 67
2018-09-28 15:00:00 24.8 8 Noroeste 19 Norte 0 -- -- 66
2018-09-28 14:00:00 24 10 Norte 23 Norte 0 -- -- 71
2018-09-28 13:00:00 23.9 6 Norte 14 Nordeste 0 -- -- 70
2018-09-28 12:00:00 20.5 0 Calma 4 Nordeste 0 -- -- 81
2018-09-28 11:00:00 16.3 2 Noroeste 6 Este 0 -- -- 95
2018-09-28 10:00:00 15.2 0 Calma 4 Nordeste 0 -- -- 97
2018-09-28 09:00:00 14.7 0 Calma 0 Calma 0 -- -- 98
2018-09-28 08:00:00 14.6 0 Calma 0 Calma 0 -- -- 97
2018-09-28 07:00:00 14.6 0 Calma 3 Norte 0 -- -- 97
2018-09-28 06:00:00 14.8 0 Calma 2 Nordeste 0 -- -- 97
2018-09-28 05:00:00 14.5 0 Calma 2 Nordeste 0 -- -- 97
2018-09-28 04:00:00 13.8 0 Calma 2 Sudeste 0 -- -- 96
2018-09-28 03:00:00 13.7 0 Calma 2 Sur 0 -- -- 95
2018-09-28 02:00:00 14.3 0 Calma 2 Sudeste 0 -- -- 95
2018-09-28 01:00:00 14.9 0 Calma 2 Sudeste 0 -- -- 94
2018-09-28 00:00:00 15.6 0 Calma 2 Sudeste 0 -- -- 93
2018-09-27 23:00:00 16.5 0 Calma 4 Sudeste 0 -- -- 91
2018-09-27 22:00:00 17.7 3 Sudeste 8 Sudeste 0 -- -- 88
2018-09-27 21:00:00 19.1 0 Calma 6 Este 0 -- -- 85
2018-09-27 20:00:00 22.2 2 Sur 10 Noroeste 0 -- -- 74
2018-09-27 19:00:00 26.7 5 Noroeste 20 Norte 0 -- -- 55
2018-09-27 18:00:00 28.6 10 Norte 20 Noroeste 0 -- -- 53
2018-09-27 17:00:00 31.1 8 Noroeste 16 Noroeste 0 -- -- 49
2018-09-27 16:00:00 31.5 3 Sudoeste 13 Sudoeste 0 -- -- 42
2018-09-27 15:00:00 30.4 7 Sudoeste 19 Sur 0 -- -- 46
2018-09-27 14:00:00 29.3 10 Sur 17 Sur 0 -- -- 48
2018-09-27 13:00:00 28.2 6 Sudoeste 18 Sudeste 0 -- -- 53
2018-09-27 12:00:00 26.4 9 Sur 24 Sur 0 -- -- 56
2018-09-27 11:00:00 24.9 6 Sur 22 Sur 0 -- -- 56
2018-09-27 10:00:00 23 3 Norte 13 Noroeste 0 -- -- 61
2018-09-27 09:00:00 21 6 Este 20 Este 0 -- -- 66
2018-09-27 08:00:00 21.3 5 Norte 18 Sur 0 -- -- 64
2018-09-27 07:00:00 21.5 3 Oeste 18 Sudoeste 0 -- -- 63
2018-09-27 06:00:00 22.7 9 Sur 28 Sudeste 0 -- -- 58
2018-09-27 05:00:00 22.9 9 Sur 22 Sur 0 -- -- 57
2018-09-27 04:00:00 23.1 5 Sudeste 28 Sudeste 0 -- -- 56
2018-09-27 03:00:00 23.3 4 Sudeste 22 Sudeste 0 -- -- 55
2018-09-27 02:00:00 23.8 5 Sur 33 Este 0 -- -- 52
2018-09-27 01:00:00 24.5 9 Sur 28 Sur 0 -- -- 50
2018-09-27 00:00:00 24.3 6 Sur 26 Este 0 -- -- 51
2018-09-26 23:00:00 19.6 3 Noroeste 15 Nordeste 0 -- -- 72
2018-09-26 22:00:00 18.3 3 Oeste 10 Sudoeste 0 -- -- 80
2018-09-26 21:00:00 19.1 2 Sudeste 9 Sudeste 0 -- -- 78
2018-09-26 20:00:00 22 3 Sudeste 11 Este 0 -- -- 68
2018-09-26 19:00:00 26.7 4 Sur 19 Sur 0 -- -- 52
2018-09-26 18:00:00 28.6 5 Oeste 27 Sur 0 -- -- 44
2018-09-26 17:00:00 28.9 9 Sur 26 Sur 0 -- -- 43
2018-09-26 16:00:00 29 8 Sudoeste 32 Este 0 -- -- 45
2018-09-26 15:00:00 28.6 7 Sur 25 Sudeste 0 -- -- 45
2018-09-26 14:00:00 27.7 9 Sur 24 Sur 0 -- -- 47
2018-09-26 13:00:00 26.7 8 Sur 23 Sur 0 -- -- 50
2018-09-26 12:00:00 25.2 6 Sur 23 Sur 0 -- -- 51
2018-09-26 11:00:00 22.1 7 Sur 16 Sur 0 -- -- 65
2018-09-26 10:00:00 13.5 0 Calma 4 Este 0 -- -- 97
2018-09-26 09:00:00 9.2 0 Calma 4 Nordeste 0 -- -- 98
2018-09-26 08:00:00 9 0 Calma 6 Sudeste 0 -- -- 97
2018-09-26 07:00:00 9.5 0 Calma 5 Sudeste 0 -- -- 98
2018-09-26 06:00:00 9.8 3 Sudeste 5 Este 0 -- -- 98
2018-09-26 05:00:00 10.1 2 Sudeste 4 Este 0 -- -- 98
2018-09-26 04:00:00 10.1 0 Calma 3 Este 0 -- -- 98
2018-09-26 03:00:00 9.8 0 Calma 2 Nordeste 0 -- -- 98
2018-09-26 02:00:00 9 0 Calma 3 Sur 0 -- -- 96
2018-09-26 01:00:00 9.2 0 Calma 3 Sudeste 0 -- -- 95
2018-09-26 00:00:00 9.8 0 Calma 3 Nordeste 0 -- -- 95
2018-09-25 23:00:00 10.4 2 Este 5 Sudeste 0 -- -- 94
2018-09-25 22:00:00 11.1 0 Calma 5 Sudeste 0 -- -- 92
2018-09-25 21:00:00 12.2 2 Sur 6 Oeste 0 -- -- 88
2018-09-25 20:00:00 14.8 4 Oeste 12 Noroeste 0 -- -- 78
2018-09-25 19:00:00 16.9 6 Noroeste 14 Noroeste 0 -- -- 69
2018-09-25 18:00:00 18.4 6 Noroeste 15 Noroeste 0 -- -- 64
2018-09-25 17:00:00 18.7 7 Noroeste 17 Noroeste 0 -- -- 64
2018-09-25 16:00:00 18.8 7 Noroeste 21 Noroeste 0 -- -- 65
2018-09-25 15:00:00 18.7 8 Norte 21 Noroeste 0 -- -- 64
2018-09-25 14:00:00 18.6 8 Noroeste 18 Noroeste 0 -- -- 66
2018-09-25 13:00:00 17.6 6 Nordeste 16 Nordeste 0 -- -- 69
2018-09-25 12:00:00 14.9 2 Este 5 Este 0 -- -- 80
2018-09-25 11:00:00 10.5 2 Sur 5 Nordeste 0 -- -- 95
2018-09-25 10:00:00 9.3 2 Nordeste 4 Nordeste 0 -- -- 97
2018-09-25 09:00:00 8.8 2 Sudoeste 5 Oeste 0 -- -- 98
2018-09-25 08:00:00 8.8 3 Oeste 6 Oeste 0 -- -- 97
2018-09-25 07:00:00 9.3 2 Oeste 4 Oeste 0 -- -- 97
2018-09-25 06:00:00 9.5 0 Calma 4 Norte 0 -- -- 97
2018-09-25 05:00:00 9.7 0 Calma 4 Sudoeste 0 -- -- 97
2018-09-25 04:00:00 9.7 0 Calma 4 Sudoeste 0 -- -- 97
2018-09-25 03:00:00 10.1 0 Calma 3 Sudoeste 0 -- -- 98
2018-09-25 02:00:00 9.5 0 Calma 3 Este 0 -- -- 97
2018-09-25 01:00:00 9.1 0 Calma 4 Sudeste 0 -- -- 96
2018-09-25 00:00:00 9.6 0 Calma 5 Sudeste 0 -- -- 94
2018-09-24 23:00:00 10.4 2 Sudeste 5 Sudeste 0 -- -- 93
2018-09-24 22:00:00 11.4 2 Sudeste 4 Sudeste 0 -- -- 89
2018-09-24 21:00:00 13.8 2 Este 9 Sudoeste 0 -- -- 83
2018-09-24 20:00:00 15.7 4 Oeste 12 Oeste 0 -- -- 73
2018-09-24 19:00:00 16.4 5 Noroeste 15 Noroeste 0 -- -- 69
2018-09-24 18:00:00 17.4 6 Norte 17 Noroeste 0 -- -- 62
2018-09-24 17:00:00 18.4 8 Noroeste 21 Noroeste 0 -- -- 67
2018-09-24 16:00:00 17.7 7 Norte 17 Noroeste 0 -- -- 70
2018-09-24 15:00:00 18.3 6 Norte 21 Nordeste 0 -- -- 70
2018-09-24 14:00:00 18.5 9 Noroeste 22 Noroeste 0 -- -- 72
2018-09-24 13:00:00 18.5 8 Noroeste 20 Noroeste 0 -- -- 73
2018-09-24 12:00:00 17.4 3 Norte 11 Oeste 0 -- -- 78
2018-09-24 11:00:00 16 4 Noroeste 12 Sudoeste 0 -- -- 85
2018-09-24 10:00:00 15.3 4 Oeste 18 Oeste 0 -- -- 89
2018-09-24 09:00:00 15.8 5 Nordeste 18 Noroeste 0 -- -- 89
2018-09-24 08:00:00 16.3 6 Noroeste 16 Oeste 0.2 -- -- 94
2018-09-24 07:00:00 16.5 4 Sudoeste 10 Oeste 0.4 -- -- 93
2018-09-24 06:00:00 17.2 3 Sudoeste 14 Oeste 1.2 -- -- 94
2018-09-24 05:00:00 17.9 3 Norte 13 Norte 1.6 -- -- 93
2018-09-24 04:00:00 18.6 3 Noroeste 10 Norte 1.4 -- -- 95
2018-09-24 03:00:00 19.1 4 Norte 23 Norte 3.2 -- -- 94
2018-09-24 02:00:00 19.8 6 Norte 18 Norte 2.4 -- -- 96
2018-09-24 01:00:00 19.8 0 Calma 2 Sudoeste 0.4 -- -- 95
2018-09-24 00:00:00 19.9 0 Calma 2 Este 0.2 -- -- 94
2018-09-23 23:00:00 20 0 Calma 2 Nordeste 0.2 -- -- 93
2018-09-23 22:00:00 20.3 0 Calma 9 Noroeste 0 -- -- 91
2018-09-23 21:00:00 21 2 Noroeste 8 Oeste 0 -- -- 86
2018-09-23 20:00:00 21.4 3 Oeste 8 Oeste 0 -- -- 82
2018-09-23 19:00:00 21.8 5 Oeste 17 Noroeste 0 -- -- 79
2018-09-23 18:00:00 22.4 8 Noroeste 21 Noroeste 0 -- -- 78
2018-09-23 17:00:00 23.2 5 Norte 29 Noroeste 0 -- -- 78
2018-09-23 16:00:00 25.5 14 Norte 28 Norte 0 -- -- 71
2018-09-23 15:00:00 26.8 12 Norte 24 Norte 0 -- -- 66
2018-09-23 14:00:00 28.8 0 Calma 0 Calma 0 -- -- 55
2018-09-23 13:00:00 26.9 0 Calma 0 Calma 0 -- -- 60
2018-09-23 12:00:00 23.7 0 Calma 0 Calma 0 -- -- 72
2018-09-23 11:00:00 20.1 0 Calma 0 Calma 0 -- -- 82
2018-09-23 10:00:00 15.7 0 Calma 0 Calma 0 -- -- 98
2018-09-23 09:00:00 15 0 Calma 0 Calma 0 -- -- 98
2018-09-23 08:00:00 14.9 0 Calma 0 Calma 0 -- -- 98
2018-09-23 07:00:00 15.2 0 Calma 0 Calma 0 -- -- 98
2018-09-23 06:00:00 15.5 0 Calma 0 Calma 0 -- -- 98
2018-09-23 05:00:00 15.6 0 Calma 0 Calma 0 -- -- 98
2018-09-23 04:00:00 15 0 Calma 0 Calma 0 -- -- 97
2018-09-23 03:00:00 14.8 0 Calma 0 Calma 0 -- -- 96
2018-09-23 02:00:00 15.1 0 Calma 0 Calma 0 -- -- 96
2018-09-23 01:00:00 15.6 0 Calma 2 Este 0 -- -- 95
2018-09-23 00:00:00 16.1 0 Calma 3 Sudeste 0 -- -- 94
2018-09-22 23:00:00 16.9 0 Calma 4 Sudeste 0 -- -- 93
2018-09-22 22:00:00 18 0 Calma 5 Este 0 -- -- 89
2018-09-22 21:00:00 19.8 2 Sudeste 4 Este 0 -- -- 85
2018-09-22 20:00:00 22.8 3 Sudeste 9 Norte 0 -- -- 76
2018-09-22 19:00:00 25.8 4 Noroeste 10 Noroeste 0 -- -- 64
2018-09-22 18:00:00 27.5 4 Norte 17 Nordeste 0 -- -- 56
2018-09-22 17:00:00 28.3 7 Norte 20 Nordeste 0 -- -- 60
2018-09-22 16:00:00 28.6 9 Nordeste 19 Nordeste 0 -- -- 59
2018-09-22 15:00:00 29.3 4 Sudeste 8 Sur 0 -- -- 56
2018-09-22 14:00:00 27.5 2 Sur 8 Norte 0 -- -- 60
2018-09-22 13:00:00 25.4 4 Este 7 Nordeste 0 -- -- 63
2018-09-22 12:00:00 23.5 2 Nordeste 6 Nordeste 0 -- -- 72
2018-09-22 11:00:00 20.8 0 Calma 6 Sudeste 0 -- -- 85
2018-09-22 10:00:00 18 2 Sudeste 5 Norte 0 -- -- 96
2018-09-22 09:00:00 16.7 2 Nordeste 5 Norte 0 -- -- 98
2018-09-22 08:00:00 15.7 2 Sudeste 4 Sudeste 0 -- -- 97
2018-09-22 07:00:00 16.4 2 Sudeste 6 Sur 0 -- -- 95
2018-09-22 06:00:00 17.7 0 Calma 4 Este 0 -- -- 95
2018-09-22 05:00:00 18.2 0 Calma 2 Este 0 -- -- 95
2018-09-22 04:00:00 18.3 0 Calma 2 Este 0 -- -- 96
2018-09-22 03:00:00 18.3 0 Calma 3 Sur 0 -- -- 96
2018-09-22 02:00:00 18.1 0 Calma 3 Noroeste 0 -- -- 95
2018-09-22 01:00:00 18.3 0 Calma 6 Noroeste 0.2 -- -- 94
2018-09-22 00:00:00 18.4 2 Norte 7 Norte 0 -- -- 94
2018-09-21 23:00:00 18.7 3 Oeste 7 Noroeste 0 -- -- 94
2018-09-21 22:00:00 19 0 Calma 3 Nordeste 0 -- -- 94
2018-09-21 21:00:00 19.2 2 Este 4 Este 0 -- -- 93
2018-09-21 20:00:00 19.6 0 Calma 10 Noroeste 0.4 -- -- 91
2018-09-21 19:00:00 19.9 3 Oeste 25 Oeste 1.8 -- -- 89
2018-09-21 18:00:00 22.3 8 Oeste 20 Oeste 0 -- -- 74
2018-09-21 17:00:00 23.3 8 Oeste 23 Noroeste 0 -- -- 70
2018-09-21 16:00:00 25.9 11 Oeste 24 Noroeste 0 -- -- 58
2018-09-21 15:00:00 25.6 10 Noroeste 21 Oeste 0 -- -- 52
2018-09-21 14:00:00 26.6 5 Noroeste 21 Norte 0 -- -- 56
2018-09-21 13:00:00 25.6 5 Norte 15 Oeste 0 -- -- 57
2018-09-21 12:00:00 23.2 0 Calma 0 Calma 0 -- -- 76
2018-09-21 11:00:00 21 0 Calma 0 Calma 0 -- -- 88
2018-09-21 10:00:00 19.4 0 Calma 0 Calma 0 -- -- 95
2018-09-21 09:00:00 18.6 0 Calma 0 Calma 0 -- -- 96
2018-09-21 08:00:00 18.1 0 Calma 0 Calma 0 -- -- 97
2018-09-21 07:00:00 17.6 0 Calma 0 Calma 0 -- -- 96
2018-09-21 06:00:00 17.3 0 Calma 3 Sudeste 0 -- -- 95
2018-09-21 05:00:00 17.9 0 Calma 5 Nordeste 0 -- -- 94
2018-09-21 04:00:00 18.8 0 Calma 3 Sur 0 -- -- 95
2018-09-21 03:00:00 18.5 0 Calma 4 Sudeste 0 -- -- 94
2018-09-21 02:00:00 19.1 0 Calma 7 Noroeste 0 -- -- 92
2018-09-21 01:00:00 20.3 2 Noroeste 6 Norte 0 -- -- 91
2018-09-21 00:00:00 20.5 0 Calma 4 Nordeste 0 -- -- 90
2018-09-20 23:00:00 21 2 Sudeste 4 Norte 0 -- -- 89
2018-09-20 22:00:00 21.3 0 Calma 5 Nordeste 0 -- -- 87
2018-09-20 21:00:00 21.7 6 Nordeste 17 Norte 0 -- -- 85
2018-09-20 20:00:00 22.4 4 Norte 20 Noroeste 0 -- -- 83
2018-09-20 19:00:00 24.1 12 Noroeste 24 Noroeste 0 -- -- 76
2018-09-20 18:00:00 27.6 9 Noroeste 22 Noroeste 0 -- -- 67
2018-09-20 17:00:00 29.2 12 Noroeste 19 Norte 0 -- -- 64
2018-09-20 16:00:00 30.1 5 Noroeste 13 Noroeste 0 -- -- 62
2018-09-20 15:00:00 28.7 8 Noroeste 17 Noroeste 0 -- -- 65
2018-09-20 14:00:00 28 5 Norte 13 Oeste 0 -- -- 63
2018-09-20 13:00:00 26.9 6 Noroeste 11 Noroeste 0 -- -- 67
2018-09-20 12:00:00 24.6 3 Sudeste 6 Sur 0 -- -- 75
2018-09-20 11:00:00 21.4 0 Calma 0 Calma 0 -- -- 85
2018-09-20 10:00:00 18.1 0 Calma 0 Calma 0 -- -- 96
2018-09-20 09:00:00 16.9 0 Calma 0 Calma 0 -- -- 97
2018-09-20 08:00:00 16.1 0 Calma 0 Calma 0 -- -- 95
2018-09-20 07:00:00 17.2 0 Calma 3 Sudeste 0 -- -- 93
2018-09-20 06:00:00 18.6 0 Calma 2 Sudeste 0 -- -- 94
2018-09-20 05:00:00 19.1 0 Calma 2 Nordeste 0 -- -- 94
2018-09-20 04:00:00 19.1 0 Calma 2 Sur 0 -- -- 94
2018-09-20 03:00:00 19.2 0 Calma 2 Sudeste 0 -- -- 94
2018-09-20 02:00:00 19.4 0 Calma 2 Nordeste 0 -- -- 93
2018-09-20 01:00:00 19.3 0 Calma 4 Nordeste 0 -- -- 92
2018-09-20 00:00:00 19.3 0 Calma 3 Norte 0 -- -- 92